logo
Search for airport 
image banner adimage banner adimage banner ad
image banner ad

CSU3 - St-Hyacinthe

Located in , Canada

ICAO - CSU3, IATA -

Data provided by Airmate  

General information

Coordinates: N45°36'24" W73°0'54"
Elevation is 118 feet MSL.
Magnetic variation is -16° East
View others Airports in Quebec

Operational data

Special qualification required
Current time UTC:
Current local time:
Weather at : CYHU - St-Hubert ( 33 km )
METAR: CYHU 070100Z AUTO 34004KT 9SM CLR M11/M14 A3035 RMK SLP283
TAF: TAF CYHU 060540Z 0606/0706 01005KT P6SM SCT012 OVC030 TEMPO 0606/0610 5SM -SN BR BKN008 OVC020 FM061000 02005KT P6SM SCT015 OVC030 TEMPO 0610/0612 5SM -SHSN BR OVC015 PROB30 0610/0612 BKN008 OVC012 FM061200 35008KT P6SM SCT008 OVC012 FM061500 01012KT P6SM SCT015 BECMG 0622/0624 VRB03KT FM070000 VRB03KT P6SM SKC RMK FCST BASED ON AUTO OBS. NXT FCST BY 061200Z
View NOTAMs / SUP AIP / TFR affecting this airport [VIEW]
Communications frequencies: [VIEW]

Runways:

RWY identifierQFULength (ft)Width (ft)SurfaceLDA (ft)
02382375ASP+GRS3397
20185°382375ASP+GRS3469

Airport contact information

Address: Canada

Other aviation service providers

Flight schools

Aviation Rou-Air

Aviation Rou-Air
info@rouair.com+15146086018

Gyro Aventure

Gyro Aventure

Satellite view of CSU3